LiveATC.Net - Listen to live air traffic control over the Internet!

Find LiveATC Audio Streams


Airport/ARTCC Code

Frequency Search
(e.g., 124.400, 128.75)
Site-wide search
 


Browse LiveATC Feeds
LiveATC Coverage Map
Top 50 LiveATC Feeds
Bad Weather Areas

LiveATC FAQ
Offer a LiveATC Feed
Contact LiveATC.net
Press Inquiries

LiveATC on iPhone
LiveATC on Android

Windows Phone
Windows 8/10

LiveATC Mobile
(Mobile browser)

ATC Audio Archives
Interesting Recordings

LiveATC Forums

Home Page
About LiveATC.net
Make a Donation
LiveATC Store

Terms of Use
Privacy Policy

Canadian Air Freqs

AIRMETs/SIGMETs

FAA Airport Status
Nat'l Airspace Status
Arrival Demand Charts


Server Software By:
Icecast.org
Liquidsoap

Select an area of interest:
U.S. Feeds: Class B Airports | Class C Airports | Class D/Other Airports | ARTCC (Centers)
International Feeds: Canada | Europe | Oceania | Asia | South America | North/Central America | Africa
Misc Feeds: HF Feeds
Search by ICAO/IATA airport code:   (e.g., kbos, kjfk, lax, eham, etc.)


Currently Available Live Feeds: 1702
Status Updated: Mon May 29 2017 00:18:01 UTC


NOTICE

Unauthorized use prohibited. See LiveATC.net Terms of Service

North and Central America Airport Feeds

 

MMAN Tower (Archives)
Monterrey, Mexico

Feed Status: UP

Click on your favorite media player to listen:
Listen with WinAmp to MMAN Tower  Listen with iTunes to MMAN Tower  Click here to listen if using Real Player  Click here to listen if using Windows Media Player

Or simply listen in your browser:

Listen right in your browser(in browser, requires Flash)

MMAN 282340Z 13012KT 6SM BKN080 34/13 A2977 RMK SLP/// 5//// 9// 8/070 HZY CB DSNT

MMAN Flight Activity (Flightaware)

Listeners: 0 out of 683 total

Monterrey Tower: 118.600

MMCU Twr/App (Archives)
Chihuahua, Mexico

Feed Status: UP

Click on your favorite media player to listen:
Listen with WinAmp to MMCU Twr/App  Listen with iTunes to MMCU Twr/App  Click here to listen if using Real Player  Click here to listen if using Windows Media Player

Or simply listen in your browser:

Listen right in your browser(in browser, requires Flash)

MMCU 282352Z 06011KT 10SM SCT030 SCT200 35/01 A2992 RMK SLP018 57027 960 8/101

MMCU Flight Activity (Flightaware)

Listeners: 1 out of 683 total

Chihuahua Approach: 121.000
Chihuahua Tower: 118.400

MMGL Twr/App
Guadalajara, Mexico

Feed Status: DOWN
Offline since: 2017-05-28 18:51:02 UTC
MMGL 282348Z 28004KT 8SM SKC 33/01 A2998 RMK SLP995 57030 982 DSNT TCU N-NE

Guadalajara Approach: 120.800
Guadalajara Tower: 118.100

MMHO App/Dep (Archives)
Hermosillo, Mexico

Feed Status: UP

Click on your favorite media player to listen:
Listen with WinAmp to MMHO App/Dep  Listen with iTunes to MMHO App/Dep  Click here to listen if using Real Player  Click here to listen if using Windows Media Player

Or simply listen in your browser:

Listen right in your browser(in browser, requires Flash)

MMHO 282349Z 24011KT 12SM SKC 38/M02 A2980 RMK SLP087 57016 973 HZY

MMHO Flight Activity (Flightaware)

Listeners: 1 out of 683 total

Hermosillo Approach/Departure: 121.400

MMHO Tower (Archives)
Hermosillo, Mexico

Feed Status: UP

Click on your favorite media player to listen:
Listen with WinAmp to MMHO Tower  Listen with iTunes to MMHO Tower  Click here to listen if using Real Player  Click here to listen if using Windows Media Player

Or simply listen in your browser:

Listen right in your browser(in browser, requires Flash)

MMHO 282349Z 24011KT 12SM SKC 38/M02 A2980 RMK SLP087 57016 973 HZY

MMHO Flight Activity (Flightaware)

Listeners: 2 out of 683 total

Hermosillo Tower: 118.700

Merida Center (West 123.75) (Archives)
Merida, Mexico

Feed Status: UP

Click on your favorite media player to listen:
Listen with WinAmp to Merida Center (West 123.75)  Listen with iTunes to Merida Center (West 123.75)  Click here to listen if using Real Player  Click here to listen if using Windows Media Player

Or simply listen in your browser:

Listen right in your browser(in browser, requires Flash)

MMID Flight Activity (Flightaware)

Listeners: 1 out of 683 total

Merida Center (West): 123.750

Merida Center (West 125.8) (Archives)
Merida, Mexico

Feed Status: UP

Click on your favorite media player to listen:
Listen with WinAmp to Merida Center (West 125.8)  Listen with iTunes to Merida Center (West 125.8)  Click here to listen if using Real Player  Click here to listen if using Windows Media Player

Or simply listen in your browser:

Listen right in your browser(in browser, requires Flash)

MMID Flight Activity (Flightaware)

Listeners: 0 out of 683 total

Merida Center (West): 125.800

MMMD Tower/Approach (Archives)
Merida, Mexico

Feed Status: UP

Click on your favorite media player to listen:
Listen with WinAmp to MMMD Tower/Approach   Listen with iTunes to MMMD Tower/Approach   Click here to listen if using Real Player  Click here to listen if using Windows Media Player

Or simply listen in your browser:

Listen right in your browser(in browser, requires Flash)

MMMD 282341Z 08010KT 7SM BKN300 35/18 A2986 RMK SLP117 57009 910 8/008 SC

MMMD Flight Activity (Flightaware)

Listeners: 0 out of 683 total

Merida Approach: 121.200
Merida Tower: 118.300

MMMX Approach (Archives)
Mexico City, Mexico

Feed Status: UP

Click on your favorite media player to listen:
Listen with WinAmp to MMMX Approach  Listen with iTunes to MMMX Approach  Click here to listen if using Real Player  Click here to listen if using Windows Media Player

Or simply listen in your browser:

Listen right in your browser(in browser, requires Flash)

MMMX 282348Z 11019KT 6SM BKN020CB BKN080 OVC200 23/11 A3017 NOSIG RMK SLP023 57011 956 8/963 HZY PCPN E SE

MMMX Flight Activity (Flightaware)

Listeners: 6 out of 683 total

Mexico City Approach: 121.200

MMMX Departure (Archives)
Mexico City, Mexico

Feed Status: UP

Click on your favorite media player to listen:
Listen with WinAmp to MMMX Departure  Listen with iTunes to MMMX Departure  Click here to listen if using Real Player  Click here to listen if using Windows Media Player

Or simply listen in your browser:

Listen right in your browser(in browser, requires Flash)

MMMX 282348Z 11019KT 6SM BKN020CB BKN080 OVC200 23/11 A3017 NOSIG RMK SLP023 57011 956 8/963 HZY PCPN E SE

MMMX Flight Activity (Flightaware)

Listeners: 2 out of 683 total

Mexico City Departure (East): 120.500
Mexico City Departure (West): 129.100

MMMX Twr/App/Center (Archives)
Mexico City, Mexico

Feed Status: UP

Click on your favorite media player to listen:
Listen with WinAmp to MMMX Twr/App/Center  Listen with iTunes to MMMX Twr/App/Center  Click here to listen if using Real Player  Click here to listen if using Windows Media Player

Or simply listen in your browser:

Listen right in your browser(in browser, requires Flash)

MMMX 282348Z 11019KT 6SM BKN020CB BKN080 OVC200 23/11 A3017 NOSIG RMK SLP023 57011 956 8/963 HZY PCPN E SE

MMMX Flight Activity (Flightaware)

Listeners: 2 out of 683 total

Final Approach: 119.750
Mexico Center (Sector 1, NorthEast MEX): 126.600
Mexico Center (Sector 2, East MEX) : 128.000
Mexico Center (Sector 3, South MEX): 128.500
Mexico Center (Sector 4, SouthWest MEX): 123.000
Mexico Center (Sector 5, West MEX): 125.100
Mexico Center (Sector 6, North MEX): 126.000
Mexico City Tower: 118.550
Terminal MEX (Approach): 129.600

MMMY Tower/Approach (Archives)
Monterrey, Mexico

Feed Status: UP

Click on your favorite media player to listen:
Listen with WinAmp to MMMY Tower/Approach  Listen with iTunes to MMMY Tower/Approach  Click here to listen if using Real Player  Click here to listen if using Windows Media Player

Or simply listen in your browser:

Listen right in your browser(in browser, requires Flash)

MMMY 282344Z 13012KT 6SM SCT070 BKN100 OVC200 36/17 A2972 RMK SLP058 57023 962 8/072 BINOVC HZY

MMMY Flight Activity (Flightaware)

Listeners: 0 out of 683 total

Monterrey Approach/Departure: 119.750
Monterrey Tower: 118.100

MMPB Tower (Archives)
Puebla, Mexico

Feed Status: UP

Click on your favorite media player to listen:
Listen with WinAmp to MMPB Tower  Listen with iTunes to MMPB Tower  Click here to listen if using Real Player  Click here to listen if using Windows Media Player

Or simply listen in your browser:

Listen right in your browser(in browser, requires Flash)

MMPB 282343Z 02006KT 5SM RA BKN020CB OVC080 14/11 A3027 RMK 6//// 8/36/

MMPB Flight Activity (Flightaware)

Listeners: 1 out of 683 total

Puebla Approach: 127.000
Puebla Tower: 118.200

MMPC CTAF
Pachuca, Mexico

Feed Status: DOWN
Offline since: 2017-05-27 20:23:02 UTC

Pachuca CTAF/AFIS: 122.900

MMQT Tower (Archives)
Queretaro, Mexico

Feed Status: UP

Click on your favorite media player to listen:
Listen with WinAmp to MMQT Tower  Listen with iTunes to MMQT Tower  Click here to listen if using Real Player  Click here to listen if using Windows Media Player

Or simply listen in your browser:

Listen right in your browser(in browser, requires Flash)

MMQT 282350Z 06015KT 6SM BKN025CB BKN220 28/11 A3010 RMK 8/303 HZY

MMQT Flight Activity (Flightaware)

Listeners: 0 out of 683 total

Queretaro Tower: 118.950

MMTC Twr/App/Center (Archives)
Torreon, Mexico

Feed Status: UP

Click on your favorite media player to listen:
Listen with WinAmp to MMTC Twr/App/Center  Listen with iTunes to MMTC Twr/App/Center  Click here to listen if using Real Player  Click here to listen if using Windows Media Player

Or simply listen in your browser:

Listen right in your browser(in browser, requires Flash)

MMTC 282349Z 36003KT 10SM SCT030CB BKN110 BKN250 37/07 A2982 RMK SLP969 57024 974 8/372

MMTC Flight Activity (Flightaware)

Listeners: 0 out of 683 total

Mazatlan Center: 124.200
Mazatlan Center: 124.400
Mazatlan Center: 128.000
Mexico Center: 123.900
Monterrey Center: 125.600
Monterrey Center: 125.425
Monterrey Center: 127.400
Torreon Approach: 119.500
Torreon Tower: 118.500

MUFH Havana FIR (App/Center) (Archives)
Havana, Cuba

Feed Status: UP

Click on your favorite media player to listen:
Listen with WinAmp to MUFH Havana FIR (App/Center)  Listen with iTunes to MUFH Havana FIR (App/Center)  Click here to listen if using Real Player  Click here to listen if using Windows Media Player

Or simply listen in your browser:

Listen right in your browser(in browser, requires Flash)

MUFH Flight Activity (Flightaware)

Listeners: 1 out of 683 total

Hava Approach: 120.300
Havana Center: 120.250
Havana Center: 123.700
Havana Center: 124.550
Havana Center: 133.700
Havana Center: 135.100

TBPB Gnd/Twr/Radar/Center (Archives)
Bridgetown, Barbados

Feed Status: UP

Click on your favorite media player to listen:
Listen with WinAmp to TBPB Gnd/Twr/Radar/Center  Listen with iTunes to TBPB Gnd/Twr/Radar/Center  Click here to listen if using Real Player  Click here to listen if using Windows Media Player

Or simply listen in your browser:

Listen right in your browser(in browser, requires Flash)

TBPB 290000Z 11012KT 9999 -SHRA VCSH BKN014 27/25 Q1016 NOSIG

TBPB Flight Activity (Flightaware)

Listeners: 2 out of 683 total

Adams Approach/Departure: 129.350
Adams Approach/Departure: 128.850
Adams Ground: 121.900
Adams Tower: 118.700
Piarco Center: 123.700

Bermuda Tower/Ground (Archives)
Hamilton, Bermuda

Feed Status: UP

Click on your favorite media player to listen:
Listen with WinAmp to Bermuda Tower/Ground  Listen with iTunes to Bermuda Tower/Ground  Click here to listen if using Real Player  Click here to listen if using Windows Media Player

Or simply listen in your browser:

Listen right in your browser(in browser, requires Flash)

TXKF 282355Z 23008KT 9999 FEW021 FEW180 SCT300 24/18 Q1018

TXKF Flight Activity (Flightaware)

Listeners: 0 out of 683 total

Bermuda CTAF: 122.800
Bermuda Ground/Clearance: 124.500
Bermuda Tower: 118.100

ZNY Bermuda Sector (Archives)
Hamilton, Bermuda

Feed Status: UP

Click on your favorite media player to listen:
Listen with WinAmp to ZNY Bermuda Sector  Listen with iTunes to ZNY Bermuda Sector  Click here to listen if using Real Player  Click here to listen if using Windows Media Player

Or simply listen in your browser:

Listen right in your browser(in browser, requires Flash)

TXKF 282355Z 23008KT 9999 FEW021 FEW180 SCT300 24/18 Q1018

TXKF Flight Activity (Flightaware)

Listeners: 1 out of 683 total

New York Approach (Bermuda Sector) : 119.100
New York Center (Bermuda Sector): 128.500

MGGT Gnd/Twr (Archives)
Guatemala City, Guatemala

Feed Status: UP

Click on your favorite media player to listen:
Listen with WinAmp to MGGT Gnd/Twr  Listen with iTunes to MGGT Gnd/Twr  Click here to listen if using Real Player  Click here to listen if using Windows Media Player

Or simply listen in your browser:

Listen right in your browser(in browser, requires Flash)

MGGT 282300Z 03004KT 9999 SCT018 FEW025CB BKN090 19/17 Q1024 A3024 CB/PCPN NE/SW RETSRA

MGGT Flight Activity (Flightaware)

Listeners: 1 out of 683 total

Guatemala City Ground: 121.900
Guatemala City Tower: 118.100

MGGT Ground (Archives)
Guatemala City, Guatemala

Feed Status: UP

Click on your favorite media player to listen:
Listen with WinAmp to MGGT Ground  Listen with iTunes to MGGT Ground  Click here to listen if using Real Player  Click here to listen if using Windows Media Player

Or simply listen in your browser:

Listen right in your browser(in browser, requires Flash)

MGGT 282300Z 03004KT 9999 SCT018 FEW025CB BKN090 19/17 Q1024 A3024 CB/PCPN NE/SW RETSRA

MGGT Flight Activity (Flightaware)

Listeners: 1 out of 683 total

Guatemala City Ground: 121.900

MGGT Tower (Archives)
Guatemala City, Guatemala

Feed Status: UP

Click on your favorite media player to listen:
Listen with WinAmp to MGGT Tower  Listen with iTunes to MGGT Tower  Click here to listen if using Real Player  Click here to listen if using Windows Media Player

Or simply listen in your browser:

Listen right in your browser(in browser, requires Flash)

MGGT 282300Z 03004KT 9999 SCT018 FEW025CB BKN090 19/17 Q1024 A3024 CB/PCPN NE/SW RETSRA

MGGT Flight Activity (Flightaware)

Listeners: 0 out of 683 total

Guatemala City Tower: 118.100

MHLC Gnd/Twr/Center
La Ceiba, Honduras

Feed Status: DOWN
Offline since: 2017-05-26 03:44:03 UTC
MHLC 290000Z 03007KT 9999 SCT024 BKN080 29/26 Q1011 A2986 NOSIG

CENAMER: 123.900
CENAMER: 124.300
Goloson Ground: 121.900
Goloson Tower: 118.500
La Ceiba Radio: 128.900

MHLM Gnd/Twr/App (Archives)
San Pedro Sula, Honduras

Feed Status: UP

Click on your favorite media player to listen:
Listen with WinAmp to MHLM Gnd/Twr/App  Listen with iTunes to MHLM Gnd/Twr/App  Click here to listen if using Real Player  Click here to listen if using Windows Media Player

Or simply listen in your browser:

Listen right in your browser(in browser, requires Flash)

MHLM 290000Z 36013KT 9999 FEW030 BKN250 30/27 Q1011 A2986 NOSIG

MHLM Flight Activity (Flightaware)

Listeners: 0 out of 683 total

La Mesa Ground: 121.900
La Mesa Tower: 118.200
San Pedro Sula Approach: 119.700

MHTG ATIS
Tegucigalpa, Honduras

Feed Status: DOWN
Offline since: 2017-05-25 19:35:03 UTC
MHTG 290000Z 09004KT 9999 FEW030 SCT090 26/14 Q1017 A3003 NOSIG

Toncontin ATIS: 127.750

MHTG Gnd/Twr/App/Ctr/Ops (Archives)
Tegucigalpa, Honduras

Feed Status: UP

Click on your favorite media player to listen:
Listen with WinAmp to MHTG Gnd/Twr/App/Ctr/Ops  Listen with iTunes to MHTG Gnd/Twr/App/Ctr/Ops  Click here to listen if using Real Player  Click here to listen if using Windows Media Player

Or simply listen in your browser:

Listen right in your browser(in browser, requires Flash)

MHTG 290000Z 09004KT 9999 FEW030 SCT090 26/14 Q1017 A3003 NOSIG

MHTG Flight Activity (Flightaware)

Listeners: 1 out of 683 total

American Airlines Ops: 130.700
ARINC ACARS: 131.550
Cenamer Center: 123.900
Cenamer Center: 124.300
Cenamer Center: 124.100
CMP Ops: 129.925
Continental Airlines Ops: 129.925
FAH Ground: 122.900
Taca Ops: 131.300
Taca Ops Sal: 130.300
Tecnologias Unidas: 133.000
Tegucigalpa RDO: 126.700
Toncontin Approach: 119.100
Toncontin Ground: 121.900
Toncontin Tower: 118.700

MPMG Ground
Panama City, Panama

Feed Status: DOWN
Offline since: 2017-05-19 18:28:03 UTC
MPTO 290000Z 28004KT 9999 SCT018 BKN080 27/27 Q1010 NOSIG

Gelabert Ground: 121.700

MPMG Tower
Panama City, Panama

Feed Status: DOWN
Offline since: 2017-05-19 18:28:03 UTC
MPTO 290000Z 28004KT 9999 SCT018 BKN080 27/27 Q1010 NOSIG

Gelabert Tower: 118.300

MPTO Approach
Panama City, Panama

Feed Status: DOWN
Offline since: 2017-05-19 18:28:03 UTC
MPTO 290000Z 28004KT 9999 SCT018 BKN080 27/27 Q1010 NOSIG

Panama Approach: 119.700

MPTO Departure
Panama City, Panama

Feed Status: DOWN
Offline since: 2017-05-19 18:28:03 UTC
MPTO 290000Z 28004KT 9999 SCT018 BKN080 27/27 Q1010 NOSIG

Panama Departure: 119.200

MPTO Ground
Panama City, Panama

Feed Status: DOWN
Offline since: 2017-05-19 18:28:03 UTC
MPTO 290000Z 28004KT 9999 SCT018 BKN080 27/27 Q1010 NOSIG

Panama Ground: 121.900

MPTO Panama Advisory
Panama City, Panama

Feed Status: DOWN
Offline since: 2017-05-19 18:28:03 UTC
MPTO 290000Z 28004KT 9999 SCT018 BKN080 27/27 Q1010 NOSIG

Panama Traffic Advisory: 121.200

MPTO Panama Center
Panama City, Panama

Feed Status: DOWN
Offline since: 2017-05-19 18:28:03 UTC
MPTO 290000Z 28004KT 9999 SCT018 BKN080 27/27 Q1010 NOSIG

Panama Center: 125.500
Panama Center: 133.300
Panama Center: 123.300
Panama Center: 133.000

MPTO Panama UNICOM
Panama City, Panama

Feed Status: DOWN
Offline since: 2017-05-19 18:28:03 UTC
MPTO 290000Z 28004KT 9999 SCT018 BKN080 27/27 Q1010 NOSIG

Panama UNICOM: 122.800

MPTO Tower
Panama City, Panama

Feed Status: DOWN
Offline since: 2017-05-19 18:28:03 UTC
MPTO 290000Z 28004KT 9999 SCT018 BKN080 27/27 Q1010 NOSIG

Panama Tower: 118.100

MROC Del/Gnd/Twr (Archives)
San Jose, Costa Rica

Feed Status: UP

Click on your favorite media player to listen:
Listen with WinAmp to MROC Del/Gnd/Twr  Listen with iTunes to MROC Del/Gnd/Twr  Click here to listen if using Real Player  Click here to listen if using Windows Media Player

Or simply listen in your browser:

Listen right in your browser(in browser, requires Flash)

MROC 290000Z VRB02KT 9999 -RA FEW015 SCT035 BKN090 21/20 A3006 NOSIG

MROC Flight Activity (Flightaware)

Listeners: 0 out of 683 total

Coco Clearance Delivery/Ground: 121.900
Coco Tower: 118.600

MROC Del/Gnd/Twr/App/Center/Misc (Archives)
San Jose, Costa Rica

Feed Status: UP

Click on your favorite media player to listen:
Listen with WinAmp to MROC Del/Gnd/Twr/App/Center/Misc  Listen with iTunes to MROC Del/Gnd/Twr/App/Center/Misc  Click here to listen if using Real Player  Click here to listen if using Windows Media Player

Or simply listen in your browser:

Listen right in your browser(in browser, requires Flash)

MROC 290000Z VRB02KT 9999 -RA FEW015 SCT035 BKN090 21/20 A3006 NOSIG

MROC Flight Activity (Flightaware)

Listeners: 4 out of 683 total

Central American Center (CENAMER Control): 124.100
Coco Center (Control over CR Airspace): 119.600
Coco Clearance Delivery: 121.300
Coco Ground: 121.900
Coco Terminal Control: 120.500
Coco Tower: 118.600
Coco UNICOM: 126.800
SYQ Ground: 121.700
SYQ Tower: 118.300

MSLP Gnd/Twr/App/Center (Archives)
San Salvador, El Salvador

Feed Status: UP

Click on your favorite media player to listen:
Listen with WinAmp to MSLP Gnd/Twr/App/Center  Listen with iTunes to MSLP Gnd/Twr/App/Center  Click here to listen if using Real Player  Click here to listen if using Windows Media Player

Or simply listen in your browser:

Listen right in your browser(in browser, requires Flash)

MSLP 282350Z VRB01KT CAVOK 28/24 Q1011 A2986 NOSIG

MSLP Flight Activity (Flightaware)

Listeners: 1 out of 683 total

Avianca Ops: 123.500
CCA: 119.300
CENAMER: 124.100
Comalapa Authorizations: 121.250
Comalapa Departure: 123.900
Comalapa Ground: 121.700
Comalapa Tower: 118.000
Compalapa Approach: 119.900
Ilopango Tower: 118.300
TACA Ops: 130.500